sensor_id;sensor_type;location;lat;lon;timestamp;P1;durP1;ratioP1;P2;durP2;ratioP2
11907;SDS011;6014;47.690;9.130;2023-03-03T00:00:20;26.20;;;13.53;;
11907;SDS011;6014;47.690;9.130;2023-03-03T00:02:48;26.17;;;12.47;;
11907;SDS011;6014;47.690;9.130;2023-03-03T00:05:31;24.30;;;12.13;;
11907;SDS011;6014;47.690;9.130;2023-03-03T00:08:00;29.90;;;13.93;;
11907;SDS011;6014;47.690;9.130;2023-03-03T00:10:28;24.47;;;12.23;;
11907;SDS011;6014;47.690;9.130;2023-03-03T00:13:05;28.43;;;14.10;;
11907;SDS011;6014;47.690;9.130;2023-03-03T00:15:41;26.07;;;12.47;;
11907;SDS011;6014;47.690;9.130;2023-03-03T00:18:12;25.80;;;13.23;;
11907;SDS011;6014;47.690;9.130;2023-03-03T00:20:49;30.77;;;13.87;;
11907;SDS011;6014;47.690;9.130;2023-03-03T00:23:23;22.47;;;12.23;;
11907;SDS011;6014;47.690;9.130;2023-03-03T00:26:14;27.73;;;12.40;;
11907;SDS011;6014;47.690;9.130;2023-03-03T00:31:25;23.60;;;13.00;;
11907;SDS011;6014;47.690;9.130;2023-03-03T00:33:56;26.33;;;13.50;;
11907;SDS011;6014;47.690;9.130;2023-03-03T00:36:33;25.43;;;13.03;;
11907;SDS011;6014;47.690;9.130;2023-03-03T00:39:16;26.70;;;13.83;;
11907;SDS011;6014;47.690;9.130;2023-03-03T00:41:56;25.90;;;13.30;;
11907;SDS011;6014;47.690;9.130;2023-03-03T00:44:39;32.07;;;14.73;;
11907;SDS011;6014;47.690;9.130;2023-03-03T00:47:23;29.60;;;14.17;;
11907;SDS011;6014;47.690;9.130;2023-03-03T00:53:01;23.43;;;12.37;;
11907;SDS011;6014;47.690;9.130;2023-03-03T00:55:31;24.13;;;12.63;;
11907;SDS011;6014;47.690;9.130;2023-03-03T00:58:00;28.13;;;14.03;;
11907;SDS011;6014;47.690;9.130;2023-03-03T01:03:21;24.57;;;13.80;;
11907;SDS011;6014;47.690;9.130;2023-03-03T01:05:50;29.00;;;14.43;;
11907;SDS011;6014;47.690;9.130;2023-03-03T01:08:21;27.27;;;14.70;;
11907;SDS011;6014;47.690;9.130;2023-03-03T01:10:50;26.73;;;12.57;;
11907;SDS011;6014;47.690;9.130;2023-03-03T01:13:27;25.93;;;14.67;;
11907;SDS011;6014;47.690;9.130;2023-03-03T01:18:46;26.53;;;13.83;;
11907;SDS011;6014;47.690;9.130;2023-03-03T01:21:14;27.93;;;14.10;;
11907;SDS011;6014;47.690;9.130;2023-03-03T01:23:44;29.40;;;13.63;;
11907;SDS011;6014;47.690;9.130;2023-03-03T01:26:12;24.73;;;12.90;;
11907;SDS011;6014;47.690;9.130;2023-03-03T01:28:40;30.37;;;13.90;;
11907;SDS011;6014;47.690;9.130;2023-03-03T01:31:10;27.87;;;13.70;;
11907;SDS011;6014;47.690;9.130;2023-03-03T01:33:38;24.93;;;12.47;;
11907;SDS011;6014;47.690;9.130;2023-03-03T01:36:09;29.03;;;15.07;;
11907;SDS011;6014;47.690;9.130;2023-03-03T01:38:48;24.83;;;13.17;;
11907;SDS011;6014;47.690;9.130;2023-03-03T01:41:19;26.47;;;13.13;;
11907;SDS011;6014;47.690;9.130;2023-03-03T01:43:48;27.03;;;14.17;;
11907;SDS011;6014;47.690;9.130;2023-03-03T01:49:15;26.60;;;13.40;;
11907;SDS011;6014;47.690;9.130;2023-03-03T01:51:48;29.77;;;14.37;;
11907;SDS011;6014;47.690;9.130;2023-03-03T01:54:21;26.90;;;13.47;;
11907;SDS011;6014;47.690;9.130;2023-03-03T01:56:52;26.83;;;14.07;;
11907;SDS011;6014;47.690;9.130;2023-03-03T01:59:24;23.37;;;12.50;;
11907;SDS011;6014;47.690;9.130;2023-03-03T02:01:55;25.60;;;13.23;;
11907;SDS011;6014;47.690;9.130;2023-03-03T02:04:32;30.93;;;14.40;;
11907;SDS011;6014;47.690;9.130;2023-03-03T02:07:03;30.60;;;13.70;;
11907;SDS011;6014;47.690;9.130;2023-03-03T02:09:41;28.83;;;14.87;;
11907;SDS011;6014;47.690;9.130;2023-03-03T02:12:21;25.27;;;13.57;;
11907;SDS011;6014;47.690;9.130;2023-03-03T02:14:56;24.57;;;12.73;;
11907;SDS011;6014;47.690;9.130;2023-03-03T02:17:24;28.83;;;13.53;;
11907;SDS011;6014;47.690;9.130;2023-03-03T02:19:54;26.97;;;14.03;;
11907;SDS011;6014;47.690;9.130;2023-03-03T02:22:37;31.13;;;14.07;;
11907;SDS011;6014;47.690;9.130;2023-03-03T02:25:12;35.43;;;14.40;;
11907;SDS011;6014;47.690;9.130;2023-03-03T02:27:50;28.13;;;13.33;;
11907;SDS011;6014;47.690;9.130;2023-03-03T02:30:19;30.90;;;15.80;;
11907;SDS011;6014;47.690;9.130;2023-03-03T02:32:48;30.43;;;15.07;;
11907;SDS011;6014;47.690;9.130;2023-03-03T02:35:32;26.63;;;13.20;;
11907;SDS011;6014;47.690;9.130;2023-03-03T02:38:16;25.17;;;12.67;;
11907;SDS011;6014;47.690;9.130;2023-03-03T02:40:59;26.07;;;13.30;;
11907;SDS011;6014;47.690;9.130;2023-03-03T02:43:38;24.57;;;13.13;;
11907;SDS011;6014;47.690;9.130;2023-03-03T02:46:11;29.77;;;13.17;;
11907;SDS011;6014;47.690;9.130;2023-03-03T02:48:39;32.10;;;14.77;;
11907;SDS011;6014;47.690;9.130;2023-03-03T02:51:07;28.20;;;14.10;;
11907;SDS011;6014;47.690;9.130;2023-03-03T02:53:35;28.33;;;14.03;;
11907;SDS011;6014;47.690;9.130;2023-03-03T02:56:03;29.60;;;14.43;;
11907;SDS011;6014;47.690;9.130;2023-03-03T03:01:12;24.70;;;14.50;;
11907;SDS011;6014;47.690;9.130;2023-03-03T03:03:40;27.73;;;13.60;;
11907;SDS011;6014;47.690;9.130;2023-03-03T03:06:08;25.83;;;13.47;;
11907;SDS011;6014;47.690;9.130;2023-03-03T03:08:37;24.77;;;13.20;;
11907;SDS011;6014;47.690;9.130;2023-03-03T03:11:05;28.03;;;14.30;;
11907;SDS011;6014;47.690;9.130;2023-03-03T03:13:33;31.13;;;15.40;;
11907;SDS011;6014;47.690;9.130;2023-03-03T03:16:03;27.63;;;13.37;;
11907;SDS011;6014;47.690;9.130;2023-03-03T03:18:31;26.50;;;13.80;;
11907;SDS011;6014;47.690;9.130;2023-03-03T03:21:04;24.40;;;13.30;;
11907;SDS011;6014;47.690;9.130;2023-03-03T03:23:33;28.43;;;14.13;;
11907;SDS011;6014;47.690;9.130;2023-03-03T03:26:02;33.67;;;15.07;;
11907;SDS011;6014;47.690;9.130;2023-03-03T03:28:35;28.67;;;14.83;;
11907;SDS011;6014;47.690;9.130;2023-03-03T03:31:05;26.40;;;13.50;;
11907;SDS011;6014;47.690;9.130;2023-03-03T03:33:34;26.07;;;13.23;;
11907;SDS011;6014;47.690;9.130;2023-03-03T03:36:03;26.73;;;13.73;;
11907;SDS011;6014;47.690;9.130;2023-03-03T03:38:32;25.00;;;13.47;;
11907;SDS011;6014;47.690;9.130;2023-03-03T03:41:02;29.07;;;14.40;;
11907;SDS011;6014;47.690;9.130;2023-03-03T03:43:34;27.20;;;13.60;;
11907;SDS011;6014;47.690;9.130;2023-03-03T03:46:02;27.73;;;13.03;;
11907;SDS011;6014;47.690;9.130;2023-03-03T03:48:32;28.33;;;13.83;;
11907;SDS011;6014;47.690;9.130;2023-03-03T03:51:00;30.30;;;14.30;;
11907;SDS011;6014;47.690;9.130;2023-03-03T03:53:35;27.30;;;14.43;;
11907;SDS011;6014;47.690;9.130;2023-03-03T03:56:03;26.13;;;14.07;;
11907;SDS011;6014;47.690;9.130;2023-03-03T03:58:33;22.60;;;12.43;;
11907;SDS011;6014;47.690;9.130;2023-03-03T04:01:01;24.53;;;13.67;;
11907;SDS011;6014;47.690;9.130;2023-03-03T04:03:32;24.03;;;13.90;;
11907;SDS011;6014;47.690;9.130;2023-03-03T04:06:00;28.90;;;13.40;;
11907;SDS011;6014;47.690;9.130;2023-03-03T04:08:28;32.10;;;15.87;;
11907;SDS011;6014;47.690;9.130;2023-03-03T04:10:56;27.63;;;14.13;;
11907;SDS011;6014;47.690;9.130;2023-03-03T04:13:29;30.90;;;16.03;;
11907;SDS011;6014;47.690;9.130;2023-03-03T04:16:00;26.03;;;12.73;;
11907;SDS011;6014;47.690;9.130;2023-03-03T04:18:28;28.57;;;14.47;;
11907;SDS011;6014;47.690;9.130;2023-03-03T04:20:58;28.47;;;14.73;;
11907;SDS011;6014;47.690;9.130;2023-03-03T04:23:26;28.50;;;15.20;;
11907;SDS011;6014;47.690;9.130;2023-03-03T04:25:54;29.17;;;14.30;;
11907;SDS011;6014;47.690;9.130;2023-03-03T04:28:22;26.77;;;13.90;;
11907;SDS011;6014;47.690;9.130;2023-03-03T04:30:52;29.70;;;13.60;;
11907;SDS011;6014;47.690;9.130;2023-03-03T04:33:20;27.13;;;13.70;;
11907;SDS011;6014;47.690;9.130;2023-03-03T04:35:54;30.07;;;14.63;;
11907;SDS011;6014;47.690;9.130;2023-03-03T04:38:24;28.80;;;14.80;;
11907;SDS011;6014;47.690;9.130;2023-03-03T04:40:52;24.67;;;13.17;;
11907;SDS011;6014;47.690;9.130;2023-03-03T04:43:20;30.67;;;13.80;;
11907;SDS011;6014;47.690;9.130;2023-03-03T04:45:48;30.17;;;15.30;;
11907;SDS011;6014;47.690;9.130;2023-03-03T04:48:21;28.43;;;14.00;;
11907;SDS011;6014;47.690;9.130;2023-03-03T04:50:49;31.17;;;15.40;;
11907;SDS011;6014;47.690;9.130;2023-03-03T04:53:18;28.03;;;14.37;;
11907;SDS011;6014;47.690;9.130;2023-03-03T04:55:48;31.10;;;14.63;;
11907;SDS011;6014;47.690;9.130;2023-03-03T04:58:16;25.10;;;13.73;;
11907;SDS011;6014;47.690;9.130;2023-03-03T05:00:45;31.33;;;14.10;;
11907;SDS011;6014;47.690;9.130;2023-03-03T05:03:19;28.60;;;13.57;;
11907;SDS011;6014;47.690;9.130;2023-03-03T05:05:48;31.07;;;14.97;;
11907;SDS011;6014;47.690;9.130;2023-03-03T05:08:23;30.33;;;13.47;;
11907;SDS011;6014;47.690;9.130;2023-03-03T05:10:53;27.83;;;13.53;;
11907;SDS011;6014;47.690;9.130;2023-03-03T05:13:21;29.63;;;14.63;;
11907;SDS011;6014;47.690;9.130;2023-03-03T05:15:49;28.50;;;15.13;;
11907;SDS011;6014;47.690;9.130;2023-03-03T05:18:18;26.20;;;14.83;;
11907;SDS011;6014;47.690;9.130;2023-03-03T05:20:47;31.30;;;14.53;;
11907;SDS011;6014;47.690;9.130;2023-03-03T05:25:49;24.63;;;13.23;;
11907;SDS011;6014;47.690;9.130;2023-03-03T05:28:19;31.83;;;15.27;;
11907;SDS011;6014;47.690;9.130;2023-03-03T05:30:47;27.13;;;12.97;;
11907;SDS011;6014;47.690;9.130;2023-03-03T05:33:15;25.40;;;12.83;;
11907;SDS011;6014;47.690;9.130;2023-03-03T05:35:44;26.87;;;13.77;;
11907;SDS011;6014;47.690;9.130;2023-03-03T05:38:12;29.33;;;15.10;;
11907;SDS011;6014;47.690;9.130;2023-03-03T05:40:40;26.00;;;14.50;;
11907;SDS011;6014;47.690;9.130;2023-03-03T05:43:10;26.00;;;14.37;;
11907;SDS011;6014;47.690;9.130;2023-03-03T05:45:39;27.43;;;14.20;;
11907;SDS011;6014;47.690;9.130;2023-03-03T05:50:56;28.20;;;14.57;;
11907;SDS011;6014;47.690;9.130;2023-03-03T05:56:29;30.67;;;15.13;;
11907;SDS011;6014;47.690;9.130;2023-03-03T05:58:57;27.90;;;15.13;;
11907;SDS011;6014;47.690;9.130;2023-03-03T06:01:27;31.13;;;15.60;;
11907;SDS011;6014;47.690;9.130;2023-03-03T06:03:55;27.47;;;13.83;;
11907;SDS011;6014;47.690;9.130;2023-03-03T06:06:24;26.60;;;13.37;;
11907;SDS011;6014;47.690;9.130;2023-03-03T06:08:53;27.73;;;14.40;;
11907;SDS011;6014;47.690;9.130;2023-03-03T06:11:22;26.13;;;14.27;;
11907;SDS011;6014;47.690;9.130;2023-03-03T06:13:50;28.30;;;15.03;;
11907;SDS011;6014;47.690;9.130;2023-03-03T06:16:18;24.53;;;14.47;;
11907;SDS011;6014;47.690;9.130;2023-03-03T06:18:54;30.10;;;15.83;;
11907;SDS011;6014;47.690;9.130;2023-03-03T06:21:23;28.30;;;13.43;;
11907;SDS011;6014;47.690;9.130;2023-03-03T06:23:51;25.63;;;13.13;;
11907;SDS011;6014;47.690;9.130;2023-03-03T06:26:20;34.60;;;16.43;;
11907;SDS011;6014;47.690;9.130;2023-03-03T06:28:48;32.90;;;15.97;;
11907;SDS011;6014;47.690;9.130;2023-03-03T06:31:30;28.80;;;14.97;;
11907;SDS011;6014;47.690;9.130;2023-03-03T06:34:05;28.90;;;15.30;;
11907;SDS011;6014;47.690;9.130;2023-03-03T06:36:33;29.23;;;14.67;;
11907;SDS011;6014;47.690;9.130;2023-03-03T06:39:02;26.83;;;15.00;;
11907;SDS011;6014;47.690;9.130;2023-03-03T06:41:32;28.93;;;14.60;;
11907;SDS011;6014;47.690;9.130;2023-03-03T06:44:03;30.37;;;16.20;;
11907;SDS011;6014;47.690;9.130;2023-03-03T06:46:32;29.47;;;15.63;;
11907;SDS011;6014;47.690;9.130;2023-03-03T06:49:03;32.47;;;16.27;;
11907;SDS011;6014;47.690;9.130;2023-03-03T06:51:36;30.20;;;15.03;;
11907;SDS011;6014;47.690;9.130;2023-03-03T06:54:14;29.13;;;15.40;;
11907;SDS011;6014;47.690;9.130;2023-03-03T06:56:44;32.10;;;15.67;;
11907;SDS011;6014;47.690;9.130;2023-03-03T06:59:14;33.70;;;16.43;;
11907;SDS011;6014;47.690;9.130;2023-03-03T07:01:43;31.93;;;15.43;;
11907;SDS011;6014;47.690;9.130;2023-03-03T07:04:15;34.50;;;17.60;;
11907;SDS011;6014;47.690;9.130;2023-03-03T07:07:06;31.30;;;15.03;;
11907;SDS011;6014;47.690;9.130;2023-03-03T07:09:48;30.83;;;15.23;;
11907;SDS011;6014;47.690;9.130;2023-03-03T07:12:22;31.63;;;15.40;;
11907;SDS011;6014;47.690;9.130;2023-03-03T07:14:54;30.83;;;15.60;;
11907;SDS011;6014;47.690;9.130;2023-03-03T07:17:29;29.33;;;15.93;;
11907;SDS011;6014;47.690;9.130;2023-03-03T07:19:58;31.50;;;15.43;;
11907;SDS011;6014;47.690;9.130;2023-03-03T07:22:35;32.67;;;17.57;;
11907;SDS011;6014;47.690;9.130;2023-03-03T07:25:05;39.27;;;17.57;;
11907;SDS011;6014;47.690;9.130;2023-03-03T07:27:54;29.20;;;15.23;;
11907;SDS011;6014;47.690;9.130;2023-03-03T07:30:25;33.03;;;16.87;;
11907;SDS011;6014;47.690;9.130;2023-03-03T07:32:54;28.87;;;14.87;;
11907;SDS011;6014;47.690;9.130;2023-03-03T07:35:31;34.47;;;17.13;;
11907;SDS011;6014;47.690;9.130;2023-03-03T07:38:10;32.70;;;16.87;;
11907;SDS011;6014;47.690;9.130;2023-03-03T07:40:50;30.27;;;16.70;;
11907;SDS011;6014;47.690;9.130;2023-03-03T07:43:25;32.03;;;15.37;;
11907;SDS011;6014;47.690;9.130;2023-03-03T07:46:01;31.97;;;16.07;;
11907;SDS011;6014;47.690;9.130;2023-03-03T07:49:00;33.87;;;16.33;;
11907;SDS011;6014;47.690;9.130;2023-03-03T07:51:36;30.43;;;16.00;;
11907;SDS011;6014;47.690;9.130;2023-03-03T07:57:35;31.90;;;15.67;;
11907;SDS011;6014;47.690;9.130;2023-03-03T08:01:18;31.53;;;16.87;;
11907;SDS011;6014;47.690;9.130;2023-03-03T08:03:16;30.57;;;15.20;;
11907;SDS011;6014;47.690;9.130;2023-03-03T08:05:46;30.23;;;15.93;;
11907;SDS011;6014;47.690;9.130;2023-03-03T08:08:26;35.97;;;16.97;;
11907;SDS011;6014;47.690;9.130;2023-03-03T08:10:58;31.97;;;15.97;;
11907;SDS011;6014;47.690;9.130;2023-03-03T08:13:27;32.67;;;15.60;;
11907;SDS011;6014;47.690;9.130;2023-03-03T08:19:13;33.53;;;15.70;;
11907;SDS011;6014;47.690;9.130;2023-03-03T08:21:53;36.50;;;17.10;;
11907;SDS011;6014;47.690;9.130;2023-03-03T08:27:06;35.77;;;15.33;;
11907;SDS011;6014;47.690;9.130;2023-03-03T08:29:34;31.27;;;15.00;;
11907;SDS011;6014;47.690;9.130;2023-03-03T08:32:02;38.33;;;20.97;;
11907;SDS011;6014;47.690;9.130;2023-03-03T08:34:46;38.20;;;16.93;;
11907;SDS011;6014;47.690;9.130;2023-03-03T08:37:14;33.17;;;17.20;;
11907;SDS011;6014;47.690;9.130;2023-03-03T08:39:42;32.27;;;16.63;;
11907;SDS011;6014;47.690;9.130;2023-03-03T08:42:10;30.77;;;17.03;;
11907;SDS011;6014;47.690;9.130;2023-03-03T08:44:41;36.50;;;17.43;;
11907;SDS011;6014;47.690;9.130;2023-03-03T08:47:09;33.97;;;15.73;;
11907;SDS011;6014;47.690;9.130;2023-03-03T08:49:37;33.03;;;16.53;;
11907;SDS011;6014;47.690;9.130;2023-03-03T08:52:07;35.73;;;16.30;;
11907;SDS011;6014;47.690;9.130;2023-03-03T08:54:36;31.97;;;18.10;;
11907;SDS011;6014;47.690;9.130;2023-03-03T08:57:04;32.03;;;18.03;;
11907;SDS011;6014;47.690;9.130;2023-03-03T08:59:32;34.63;;;18.47;;
11907;SDS011;6014;47.690;9.130;2023-03-03T09:02:04;38.70;;;18.30;;
11907;SDS011;6014;47.690;9.130;2023-03-03T09:04:34;30.27;;;16.50;;
11907;SDS011;6014;47.690;9.130;2023-03-03T09:07:04;33.57;;;15.83;;
11907;SDS011;6014;47.690;9.130;2023-03-03T09:09:41;32.17;;;16.87;;
11907;SDS011;6014;47.690;9.130;2023-03-03T09:12:18;33.67;;;17.53;;
11907;SDS011;6014;47.690;9.130;2023-03-03T09:15:05;42.17;;;17.93;;
11907;SDS011;6014;47.690;9.130;2023-03-03T09:17:48;31.37;;;16.50;;
11907;SDS011;6014;47.690;9.130;2023-03-03T09:20:27;37.57;;;16.30;;
11907;SDS011;6014;47.690;9.130;2023-03-03T09:23:16;34.13;;;16.60;;
11907;SDS011;6014;47.690;9.130;2023-03-03T09:25:55;30.03;;;16.30;;
11907;SDS011;6014;47.690;9.130;2023-03-03T09:28:35;33.27;;;17.67;;
11907;SDS011;6014;47.690;9.130;2023-03-03T09:31:05;31.20;;;16.20;;
11907;SDS011;6014;47.690;9.130;2023-03-03T09:33:49;32.37;;;17.73;;
11907;SDS011;6014;47.690;9.130;2023-03-03T09:36:21;36.40;;;17.60;;
11907;SDS011;6014;47.690;9.130;2023-03-03T09:39:11;37.47;;;17.10;;
11907;SDS011;6014;47.690;9.130;2023-03-03T09:41:48;34.63;;;18.33;;
11907;SDS011;6014;47.690;9.130;2023-03-03T09:45:01;33.23;;;18.17;;
11907;SDS011;6014;47.690;9.130;2023-03-03T09:50:53;37.47;;;17.73;;
11907;SDS011;6014;47.690;9.130;2023-03-03T09:53:51;34.43;;;17.67;;
11907;SDS011;6014;47.690;9.130;2023-03-03T09:59:56;36.63;;;17.30;;
11907;SDS011;6014;47.690;9.130;2023-03-03T10:02:46;31.07;;;16.00;;
11907;SDS011;6014;47.690;9.130;2023-03-03T10:05:28;33.13;;;16.03;;
11907;SDS011;6014;47.690;9.130;2023-03-03T10:08:14;40.17;;;19.47;;
11907;SDS011;6014;47.690;9.130;2023-03-03T10:11:08;38.43;;;19.90;;
11907;SDS011;6014;47.690;9.130;2023-03-03T10:13:50;34.23;;;18.80;;
11907;SDS011;6014;47.690;9.130;2023-03-03T10:16:38;35.80;;;17.37;;
11907;SDS011;6014;47.690;9.130;2023-03-03T10:19:25;33.57;;;17.40;;
11907;SDS011;6014;47.690;9.130;2023-03-03T10:22:10;35.07;;;17.37;;
11907;SDS011;6014;47.690;9.130;2023-03-03T10:27:50;35.67;;;17.40;;
11907;SDS011;6014;47.690;9.130;2023-03-03T10:30:37;36.57;;;18.63;;
11907;SDS011;6014;47.690;9.130;2023-03-03T10:33:30;34.97;;;17.83;;
11907;SDS011;6014;47.690;9.130;2023-03-03T10:36:11;32.53;;;18.50;;
11907;SDS011;6014;47.690;9.130;2023-03-03T10:39:10;34.17;;;17.63;;
11907;SDS011;6014;47.690;9.130;2023-03-03T10:45:06;35.63;;;16.57;;
11907;SDS011;6014;47.690;9.130;2023-03-03T10:48:02;35.20;;;18.43;;
11907;SDS011;6014;47.690;9.130;2023-03-03T10:50:41;36.03;;;19.60;;
11907;SDS011;6014;47.690;9.130;2023-03-03T10:53:20;35.80;;;18.67;;
11907;SDS011;6014;47.690;9.130;2023-03-03T10:58:44;36.40;;;18.45;;
11907;SDS011;6014;47.690;9.130;2023-03-03T11:01:20;36.50;;;18.17;;
11907;SDS011;6014;47.690;9.130;2023-03-03T11:06:48;34.85;;;17.80;;
11907;SDS011;6014;47.690;9.130;2023-03-03T11:09:30;37.70;;;18.10;;
11907;SDS011;6014;47.690;9.130;2023-03-03T11:12:17;37.88;;;19.38;;
11907;SDS011;6014;47.690;9.130;2023-03-03T11:14:53;36.35;;;17.45;;
11907;SDS011;6014;47.690;9.130;2023-03-03T11:17:35;34.63;;;18.63;;
11907;SDS011;6014;47.690;9.130;2023-03-03T11:20:20;38.00;;;18.77;;
11907;SDS011;6014;47.690;9.130;2023-03-03T11:23:04;35.50;;;19.10;;
11907;SDS011;6014;47.690;9.130;2023-03-03T11:25:44;33.10;;;17.15;;
11907;SDS011;6014;47.690;9.130;2023-03-03T11:28:27;36.03;;;15.63;;
11907;SDS011;6014;47.690;9.130;2023-03-03T11:31:10;39.10;;;19.35;;
11907;SDS011;6014;47.690;9.130;2023-03-03T11:33:46;41.47;;;19.90;;
11907;SDS011;6014;47.690;9.130;2023-03-03T11:36:26;35.58;;;18.73;;
11907;SDS011;6014;47.690;9.130;2023-03-03T11:39:02;34.60;;;18.83;;
11907;SDS011;6014;47.690;9.130;2023-03-03T11:41:35;32.75;;;17.52;;
11907;SDS011;6014;47.690;9.130;2023-03-03T11:44:16;36.50;;;18.33;;
11907;SDS011;6014;47.690;9.130;2023-03-03T11:46:48;38.33;;;18.60;;
11907;SDS011;6014;47.690;9.130;2023-03-03T11:49:27;35.95;;;17.92;;
11907;SDS011;6014;47.690;9.130;2023-03-03T11:52:04;40.30;;;21.05;;
11907;SDS011;6014;47.690;9.130;2023-03-03T11:54:53;37.53;;;20.20;;
11907;SDS011;6014;47.690;9.130;2023-03-03T11:57:27;42.38;;;20.52;;
11907;SDS011;6014;47.690;9.130;2023-03-03T12:06:06;39.92;;;19.50;;
11907;SDS011;6014;47.690;9.130;2023-03-03T12:08:59;40.85;;;20.02;;
11907;SDS011;6014;47.690;9.130;2023-03-03T12:11:48;38.05;;;18.65;;
11907;SDS011;6014;47.690;9.130;2023-03-03T12:14:25;37.45;;;19.55;;
11907;SDS011;6014;47.690;9.130;2023-03-03T12:17:17;39.67;;;20.60;;
11907;SDS011;6014;47.690;9.130;2023-03-03T12:20:00;38.35;;;19.13;;
11907;SDS011;6014;47.690;9.130;2023-03-03T12:22:34;38.50;;;20.63;;
11907;SDS011;6014;47.690;9.130;2023-03-03T12:25:26;38.75;;;21.08;;
11907;SDS011;6014;47.690;9.130;2023-03-03T12:28:15;36.90;;;19.88;;
11907;SDS011;6014;47.690;9.130;2023-03-03T12:30:52;37.85;;;20.10;;
11907;SDS011;6014;47.690;9.130;2023-03-03T12:33:36;34.92;;;19.85;;
11907;SDS011;6014;47.690;9.130;2023-03-03T12:36:17;41.28;;;19.67;;
11907;SDS011;6014;47.690;9.130;2023-03-03T12:38:55;38.83;;;20.85;;
11907;SDS011;6014;47.690;9.130;2023-03-03T12:41:35;35.92;;;19.73;;
11907;SDS011;6014;47.690;9.130;2023-03-03T12:44:13;39.03;;;20.50;;
11907;SDS011;6014;47.690;9.130;2023-03-03T12:46:58;37.70;;;22.38;;
11907;SDS011;6014;47.690;9.130;2023-03-03T12:49:32;37.22;;;21.13;;
11907;SDS011;6014;47.690;9.130;2023-03-03T12:52:25;38.80;;;21.70;;
11907;SDS011;6014;47.690;9.130;2023-03-03T12:55:13;40.10;;;20.70;;
11907;SDS011;6014;47.690;9.130;2023-03-03T12:58:09;35.47;;;19.98;;
11907;SDS011;6014;47.690;9.130;2023-03-03T13:00:52;39.60;;;19.85;;
11907;SDS011;6014;47.690;9.130;2023-03-03T13:03:32;40.40;;;20.80;;
11907;SDS011;6014;47.690;9.130;2023-03-03T13:06:35;39.17;;;21.52;;
11907;SDS011;6014;47.690;9.130;2023-03-03T13:09:26;43.05;;;21.02;;
11907;SDS011;6014;47.690;9.130;2023-03-03T13:20:33;38.42;;;20.42;;
11907;SDS011;6014;47.690;9.130;2023-03-03T13:23:09;38.17;;;20.50;;
11907;SDS011;6014;47.690;9.130;2023-03-03T13:25:49;36.58;;;20.20;;
11907;SDS011;6014;47.690;9.130;2023-03-03T13:28:24;40.45;;;20.33;;
11907;SDS011;6014;47.690;9.130;2023-03-03T13:31:04;44.72;;;21.95;;
11907;SDS011;6014;47.690;9.130;2023-03-03T13:33:37;39.58;;;19.95;;
11907;SDS011;6014;47.690;9.130;2023-03-03T13:36:11;38.22;;;19.60;;
11907;SDS011;6014;47.690;9.130;2023-03-03T13:38:45;41.85;;;20.85;;
11907;SDS011;6014;47.690;9.130;2023-03-03T13:41:16;41.78;;;21.63;;
11907;SDS011;6014;47.690;9.130;2023-03-03T13:43:53;40.85;;;21.35;;
11907;SDS011;6014;47.690;9.130;2023-03-03T13:46:31;42.55;;;20.70;;
11907;SDS011;6014;47.690;9.130;2023-03-03T13:49:13;38.85;;;21.38;;
11907;SDS011;6014;47.690;9.130;2023-03-03T13:51:52;39.40;;;20.92;;
11907;SDS011;6014;47.690;9.130;2023-03-03T13:57:22;37.70;;;20.35;;
11907;SDS011;6014;47.690;9.130;2023-03-03T14:00:19;40.00;;;20.40;;
11907;SDS011;6014;47.690;9.130;2023-03-03T14:05:56;39.95;;;20.73;;
11907;SDS011;6014;47.690;9.130;2023-03-03T14:08:45;35.20;;;20.48;;
11907;SDS011;6014;47.690;9.130;2023-03-03T14:11:39;40.80;;;20.67;;
11907;SDS011;6014;47.690;9.130;2023-03-03T14:14:25;37.33;;;20.60;;
11907;SDS011;6014;47.690;9.130;2023-03-03T14:17:11;40.50;;;19.27;;
11907;SDS011;6014;47.690;9.130;2023-03-03T14:19:58;38.55;;;20.30;;
11907;SDS011;6014;47.690;9.130;2023-03-03T14:22:40;43.00;;;20.35;;
11907;SDS011;6014;47.690;9.130;2023-03-03T14:25:12;37.92;;;19.30;;
11907;SDS011;6014;47.690;9.130;2023-03-03T14:27:52;39.22;;;19.83;;
11907;SDS011;6014;47.690;9.130;2023-03-03T14:30:37;39.10;;;21.15;;
11907;SDS011;6014;47.690;9.130;2023-03-03T14:33:18;37.00;;;20.40;;
11907;SDS011;6014;47.690;9.130;2023-03-03T14:36:02;36.60;;;19.98;;
11907;SDS011;6014;47.690;9.130;2023-03-03T14:38:49;37.33;;;20.02;;
11907;SDS011;6014;47.690;9.130;2023-03-03T14:41:21;39.13;;;19.67;;
11907;SDS011;6014;47.690;9.130;2023-03-03T14:47:10;44.38;;;21.70;;
11907;SDS011;6014;47.690;9.130;2023-03-03T14:49:46;40.83;;;21.98;;
11907;SDS011;6014;47.690;9.130;2023-03-03T14:52:24;38.97;;;20.20;;
11907;SDS011;6014;47.690;9.130;2023-03-03T14:55:00;36.88;;;20.42;;
11907;SDS011;6014;47.690;9.130;2023-03-03T14:57:38;39.20;;;21.80;;
11907;SDS011;6014;47.690;9.130;2023-03-03T15:00:28;41.15;;;21.25;;
11907;SDS011;6014;47.690;9.130;2023-03-03T15:03:03;39.30;;;19.50;;
11907;SDS011;6014;47.690;9.130;2023-03-03T15:08:26;35.90;;;18.88;;
11907;SDS011;6014;47.690;9.130;2023-03-03T15:11:10;41.35;;;20.55;;
11907;SDS011;6014;47.690;9.130;2023-03-03T15:13:40;39.10;;;20.45;;
11907;SDS011;6014;47.690;9.130;2023-03-03T15:16:09;38.05;;;21.52;;
11907;SDS011;6014;47.690;9.130;2023-03-03T15:21:58;35.85;;;20.23;;
11907;SDS011;6014;47.690;9.130;2023-03-03T15:24:35;40.20;;;20.58;;
11907;SDS011;6014;47.690;9.130;2023-03-03T15:27:18;39.35;;;20.80;;
11907;SDS011;6014;47.690;9.130;2023-03-03T15:30:01;41.42;;;20.85;;
11907;SDS011;6014;47.690;9.130;2023-03-03T15:32:40;39.13;;;20.65;;
11907;SDS011;6014;47.690;9.130;2023-03-03T15:35:19;38.95;;;21.83;;
11907;SDS011;6014;47.690;9.130;2023-03-03T15:37:59;37.47;;;20.20;;
11907;SDS011;6014;47.690;9.130;2023-03-03T15:40:38;41.05;;;21.95;;
11907;SDS011;6014;47.690;9.130;2023-03-03T15:43:13;40.83;;;20.67;;
11907;SDS011;6014;47.690;9.130;2023-03-03T15:46:13;39.97;;;19.65;;
11907;SDS011;6014;47.690;9.130;2023-03-03T15:48:58;36.47;;;20.52;;
11907;SDS011;6014;47.690;9.130;2023-03-03T15:54:38;36.63;;;19.15;;
11907;SDS011;6014;47.690;9.130;2023-03-03T15:57:12;41.03;;;20.83;;
11907;SDS011;6014;47.690;9.130;2023-03-03T15:59:51;44.83;;;21.63;;
11907;SDS011;6014;47.690;9.130;2023-03-03T16:02:36;41.53;;;21.30;;
11907;SDS011;6014;47.690;9.130;2023-03-03T16:05:15;35.15;;;19.00;;
11907;SDS011;6014;47.690;9.130;2023-03-03T16:07:53;46.08;;;20.55;;
11907;SDS011;6014;47.690;9.130;2023-03-03T16:10:31;41.20;;;21.05;;
11907;SDS011;6014;47.690;9.130;2023-03-03T16:21:47;40.50;;;19.58;;
11907;SDS011;6014;47.690;9.130;2023-03-03T16:24:39;36.40;;;19.20;;
11907;SDS011;6014;47.690;9.130;2023-03-03T16:27:20;36.13;;;20.10;;
11907;SDS011;6014;47.690;9.130;2023-03-03T16:32:42;39.20;;;19.88;;
11907;SDS011;6014;47.690;9.130;2023-03-03T16:35:25;37.63;;;19.00;;
11907;SDS011;6014;47.690;9.130;2023-03-03T16:37:58;34.70;;;19.33;;
11907;SDS011;6014;47.690;9.130;2023-03-03T16:40:29;37.13;;;20.30;;
11907;SDS011;6014;47.690;9.130;2023-03-03T16:43:04;39.58;;;21.27;;
11907;SDS011;6014;47.690;9.130;2023-03-03T16:45:43;35.22;;;18.92;;
11907;SDS011;6014;47.690;9.130;2023-03-03T16:48:14;42.58;;;20.90;;
11907;SDS011;6014;47.690;9.130;2023-03-03T16:50:59;38.58;;;22.52;;
11907;SDS011;6014;47.690;9.130;2023-03-03T16:53:47;39.45;;;19.90;;
11907;SDS011;6014;47.690;9.130;2023-03-03T16:56:27;42.08;;;20.55;;
11907;SDS011;6014;47.690;9.130;2023-03-03T16:59:19;40.55;;;21.10;;
11907;SDS011;6014;47.690;9.130;2023-03-03T17:02:22;38.05;;;17.88;;